sensor_id;sensor_type;location;lat;lon;timestamp;P1;durP1;ratioP1;P2;durP2;ratioP2
48777;SDS011;34578;0.000;0.000;2022-09-06T00:03:49;3.70;;;2.20;;
48777;SDS011;34578;0.000;0.000;2022-09-06T00:08:49;4.03;;;2.30;;
48777;SDS011;34578;0.000;0.000;2022-09-06T00:13:49;3.20;;;2.30;;
48777;SDS011;34578;0.000;0.000;2022-09-06T00:18:53;2.33;;;2.10;;
48777;SDS011;34578;0.000;0.000;2022-09-06T00:23:54;5.65;;;1.70;;
48777;SDS011;34578;0.000;0.000;2022-09-06T00:28:54;2.85;;;2.15;;
48777;SDS011;34578;0.000;0.000;2022-09-06T00:33:55;4.17;;;2.37;;
48777;SDS011;34578;0.000;0.000;2022-09-06T00:38:55;2.50;;;2.30;;
48777;SDS011;34578;0.000;0.000;2022-09-06T00:43:56;2.63;;;2.03;;
48777;SDS011;34578;0.000;0.000;2022-09-06T00:48:57;2.93;;;2.00;;
48777;SDS011;34578;0.000;0.000;2022-09-06T00:54:04;3.72;;;2.17;;
48777;SDS011;34578;0.000;0.000;2022-09-06T00:59:06;3.50;;;2.10;;
48777;SDS011;34578;0.000;0.000;2022-09-06T01:04:07;2.90;;;2.55;;
48777;SDS011;34578;0.000;0.000;2022-09-06T01:30:19;3.25;;;1.70;;
48777;SDS011;34578;0.000;0.000;2022-09-06T01:35:37;4.07;;;2.33;;
48777;SDS011;34578;0.000;0.000;2022-09-06T01:40:47;2.53;;;2.03;;
48777;SDS011;34578;0.000;0.000;2022-09-06T01:51:03;2.95;;;1.95;;
48777;SDS011;34578;0.000;0.000;2022-09-06T01:56:29;6.90;;;2.50;;
48777;SDS011;34578;0.000;0.000;2022-09-06T02:06:49;3.17;;;2.25;;
48777;SDS011;34578;0.000;0.000;2022-09-06T02:11:57;2.08;;;1.70;;
48777;SDS011;34578;0.000;0.000;2022-09-06T02:17:00;2.35;;;2.00;;
48777;SDS011;34578;0.000;0.000;2022-09-06T02:22:03;3.40;;;2.17;;
48777;SDS011;34578;0.000;0.000;2022-09-06T02:27:09;5.83;;;2.90;;
48777;SDS011;34578;0.000;0.000;2022-09-06T02:32:20;4.85;;;2.50;;
48777;SDS011;34578;0.000;0.000;2022-09-06T02:37:23;3.70;;;2.20;;
48777;SDS011;34578;0.000;0.000;2022-09-06T02:42:27;10.23;;;2.80;;
48777;SDS011;34578;0.000;0.000;2022-09-06T02:47:27;3.92;;;2.10;;
48777;SDS011;34578;0.000;0.000;2022-09-06T02:52:28;5.27;;;2.43;;
48777;SDS011;34578;0.000;0.000;2022-09-06T02:57:28;3.60;;;2.33;;
48777;SDS011;34578;0.000;0.000;2022-09-06T03:02:28;5.80;;;2.30;;
48777;SDS011;34578;0.000;0.000;2022-09-06T03:07:29;4.85;;;1.98;;
48777;SDS011;34578;0.000;0.000;2022-09-06T03:12:29;4.37;;;2.63;;
48777;SDS011;34578;0.000;0.000;2022-09-06T03:17:30;6.10;;;2.43;;
48777;SDS011;34578;0.000;0.000;2022-09-06T03:22:30;5.97;;;2.30;;
48777;SDS011;34578;0.000;0.000;2022-09-06T03:27:30;9.87;;;2.73;;
48777;SDS011;34578;0.000;0.000;2022-09-06T03:32:31;5.55;;;2.47;;
48777;SDS011;34578;0.000;0.000;2022-09-06T03:37:32;6.05;;;2.08;;
48777;SDS011;34578;0.000;0.000;2022-09-06T03:42:32;6.95;;;2.60;;
48777;SDS011;34578;0.000;0.000;2022-09-06T03:47:33;5.50;;;2.53;;
48777;SDS011;34578;0.000;0.000;2022-09-06T03:52:33;6.28;;;2.55;;
48777;SDS011;34578;0.000;0.000;2022-09-06T03:57:33;7.30;;;2.10;;
48777;SDS011;34578;0.000;0.000;2022-09-06T04:02:34;6.57;;;2.73;;
48777;SDS011;34578;0.000;0.000;2022-09-06T04:07:34;7.00;;;3.03;;
48777;SDS011;34578;0.000;0.000;2022-09-06T04:12:36;5.50;;;3.13;;
48777;SDS011;34578;0.000;0.000;2022-09-06T04:17:37;8.83;;;2.97;;
48777;SDS011;34578;0.000;0.000;2022-09-06T04:22:37;6.80;;;2.20;;
48777;SDS011;34578;0.000;0.000;2022-09-06T04:27:38;8.45;;;2.58;;
48777;SDS011;34578;0.000;0.000;2022-09-06T04:32:38;6.27;;;3.13;;
48777;SDS011;34578;0.000;0.000;2022-09-06T04:37:39;8.70;;;2.53;;
48777;SDS011;34578;0.000;0.000;2022-09-06T04:42:39;4.57;;;2.50;;
48777;SDS011;34578;0.000;0.000;2022-09-06T04:47:40;5.30;;;2.40;;
48777;SDS011;34578;0.000;0.000;2022-09-06T04:52:40;4.97;;;2.40;;
48777;SDS011;34578;0.000;0.000;2022-09-06T04:57:40;6.17;;;2.67;;
48777;SDS011;34578;0.000;0.000;2022-09-06T05:02:41;5.70;;;2.50;;
48777;SDS011;34578;0.000;0.000;2022-09-06T05:07:42;8.23;;;2.95;;
48777;SDS011;34578;0.000;0.000;2022-09-06T05:12:42;4.87;;;2.57;;
48777;SDS011;34578;0.000;0.000;2022-09-06T05:17:43;6.93;;;2.70;;
48777;SDS011;34578;0.000;0.000;2022-09-06T05:22:50;6.13;;;2.28;;
48777;SDS011;34578;0.000;0.000;2022-09-06T05:27:51;6.10;;;2.72;;
48777;SDS011;34578;0.000;0.000;2022-09-06T05:32:51;7.53;;;2.70;;
48777;SDS011;34578;0.000;0.000;2022-09-06T05:37:52;7.30;;;2.20;;
48777;SDS011;34578;0.000;0.000;2022-09-06T05:42:52;4.83;;;2.30;;
48777;SDS011;34578;0.000;0.000;2022-09-06T05:47:52;6.40;;;2.45;;
48777;SDS011;34578;0.000;0.000;2022-09-06T05:52:53;6.72;;;2.65;;
48777;SDS011;34578;0.000;0.000;2022-09-06T05:57:53;6.17;;;2.33;;
48777;SDS011;34578;0.000;0.000;2022-09-06T06:02:54;9.30;;;2.60;;
48777;SDS011;34578;0.000;0.000;2022-09-06T06:07:54;8.43;;;2.87;;
48777;SDS011;34578;0.000;0.000;2022-09-06T06:12:57;6.15;;;2.38;;
48777;SDS011;34578;0.000;0.000;2022-09-06T06:17:57;6.00;;;2.23;;
48777;SDS011;34578;0.000;0.000;2022-09-06T06:22:57;7.57;;;2.60;;
48777;SDS011;34578;0.000;0.000;2022-09-06T06:27:58;6.40;;;3.03;;
48777;SDS011;34578;0.000;0.000;2022-09-06T06:32:58;7.03;;;2.47;;
48777;SDS011;34578;0.000;0.000;2022-09-06T06:37:59;3.55;;;2.38;;
48777;SDS011;34578;0.000;0.000;2022-09-06T06:43:00;5.22;;;2.55;;
48777;SDS011;34578;0.000;0.000;2022-09-06T06:48:01;7.87;;;3.00;;
48777;SDS011;34578;0.000;0.000;2022-09-06T06:53:01;4.82;;;2.47;;
48777;SDS011;34578;0.000;0.000;2022-09-06T06:58:01;7.70;;;2.60;;
48777;SDS011;34578;0.000;0.000;2022-09-06T07:03:02;9.77;;;3.47;;
48777;SDS011;34578;0.000;0.000;2022-09-06T07:08:04;7.35;;;3.15;;
48777;SDS011;34578;0.000;0.000;2022-09-06T07:13:05;8.80;;;3.40;;
48777;SDS011;34578;0.000;0.000;2022-09-06T07:18:06;5.97;;;2.73;;
48777;SDS011;34578;0.000;0.000;2022-09-06T07:23:06;7.70;;;2.57;;
48777;SDS011;34578;0.000;0.000;2022-09-06T07:28:06;9.73;;;2.90;;
48777;SDS011;34578;0.000;0.000;2022-09-06T07:33:07;7.23;;;3.07;;
48777;SDS011;34578;0.000;0.000;2022-09-06T07:38:07;7.17;;;3.63;;
48777;SDS011;34578;0.000;0.000;2022-09-06T07:43:07;7.13;;;3.03;;
48777;SDS011;34578;0.000;0.000;2022-09-06T07:48:08;5.10;;;2.83;;
48777;SDS011;34578;0.000;0.000;2022-09-06T07:53:08;11.03;;;3.10;;
48777;SDS011;34578;0.000;0.000;2022-09-06T07:58:09;8.25;;;3.03;;
48777;SDS011;34578;0.000;0.000;2022-09-06T08:03:10;7.97;;;3.57;;
48777;SDS011;34578;0.000;0.000;2022-09-06T08:08:10;7.50;;;3.28;;
48777;SDS011;34578;0.000;0.000;2022-09-06T08:13:10;7.10;;;2.90;;
48777;SDS011;34578;0.000;0.000;2022-09-06T08:18:11;11.87;;;3.47;;
48777;SDS011;34578;0.000;0.000;2022-09-06T08:23:11;9.43;;;3.30;;
48777;SDS011;34578;0.000;0.000;2022-09-06T08:28:11;4.30;;;2.50;;
48777;SDS011;34578;0.000;0.000;2022-09-06T08:33:12;6.40;;;2.23;;
48777;SDS011;34578;0.000;0.000;2022-09-06T08:38:12;9.37;;;3.10;;
48777;SDS011;34578;0.000;0.000;2022-09-06T08:43:13;7.70;;;2.90;;
48777;SDS011;34578;0.000;0.000;2022-09-06T08:48:17;7.18;;;3.38;;
48777;SDS011;34578;0.000;0.000;2022-09-06T08:53:18;8.13;;;3.95;;
48777;SDS011;34578;0.000;0.000;2022-09-06T08:58:24;7.72;;;3.28;;
48777;SDS011;34578;0.000;0.000;2022-09-06T09:03:51;8.75;;;2.92;;
48777;SDS011;34578;0.000;0.000;2022-09-06T09:09:07;6.63;;;2.63;;
48777;SDS011;34578;0.000;0.000;2022-09-06T09:14:20;5.35;;;2.60;;
48777;SDS011;34578;0.000;0.000;2022-09-06T09:19:26;6.30;;;2.63;;
48777;SDS011;34578;0.000;0.000;2022-09-06T09:24:30;3.97;;;2.03;;
48777;SDS011;34578;0.000;0.000;2022-09-06T09:29:31;7.13;;;2.20;;
48777;SDS011;34578;0.000;0.000;2022-09-06T09:39:34;6.38;;;2.40;;
48777;SDS011;34578;0.000;0.000;2022-09-06T09:44:43;8.18;;;2.92;;
48777;SDS011;34578;0.000;0.000;2022-09-06T09:49:44;5.25;;;2.13;;
48777;SDS011;34578;0.000;0.000;2022-09-06T09:54:45;4.67;;;2.00;;
48777;SDS011;34578;0.000;0.000;2022-09-06T09:59:47;4.07;;;2.40;;
48777;SDS011;34578;0.000;0.000;2022-09-06T10:04:50;2.20;;;1.67;;
48777;SDS011;34578;0.000;0.000;2022-09-06T10:10:05;2.25;;;1.67;;
48777;SDS011;34578;0.000;0.000;2022-09-06T10:20:33;3.17;;;1.90;;
48777;SDS011;34578;0.000;0.000;2022-09-06T10:25:44;2.55;;;1.63;;
48777;SDS011;34578;0.000;0.000;2022-09-06T10:30:52;3.25;;;2.20;;
48777;SDS011;34578;0.000;0.000;2022-09-06T10:36:05;3.70;;;1.83;;
48777;SDS011;34578;0.000;0.000;2022-09-06T10:46:42;2.53;;;1.50;;
48777;SDS011;34578;0.000;0.000;2022-09-06T10:51:52;4.57;;;2.30;;
48777;SDS011;34578;0.000;0.000;2022-09-06T10:57:07;3.00;;;1.60;;
48777;SDS011;34578;0.000;0.000;2022-09-06T11:07:45;4.93;;;1.85;;
48777;SDS011;34578;0.000;0.000;2022-09-06T11:23:36;2.42;;;1.73;;
48777;SDS011;34578;0.000;0.000;2022-09-06T11:28:56;2.97;;;1.35;;
48777;SDS011;34578;0.000;0.000;2022-09-06T11:34:03;1.95;;;1.15;;
48777;SDS011;34578;0.000;0.000;2022-09-06T11:39:09;2.83;;;1.52;;
48777;SDS011;34578;0.000;0.000;2022-09-06T11:44:10;4.25;;;1.80;;
48777;SDS011;34578;0.000;0.000;2022-09-06T12:04:23;2.42;;;1.40;;
48777;SDS011;34578;0.000;0.000;2022-09-06T12:09:43;4.68;;;1.88;;
48777;SDS011;34578;0.000;0.000;2022-09-06T12:14:45;1.88;;;1.30;;
48777;SDS011;34578;0.000;0.000;2022-09-06T12:19:47;3.33;;;1.50;;
48777;SDS011;34578;0.000;0.000;2022-09-06T12:24:50;2.13;;;1.52;;
48777;SDS011;34578;0.000;0.000;2022-09-06T12:29:54;3.42;;;1.80;;
48777;SDS011;34578;0.000;0.000;2022-09-06T12:34:58;4.00;;;1.83;;
48777;SDS011;34578;0.000;0.000;2022-09-06T12:40:02;2.80;;;1.80;;
48777;SDS011;34578;0.000;0.000;2022-09-06T12:45:05;2.10;;;1.50;;
48777;SDS011;34578;0.000;0.000;2022-09-06T12:50:16;2.33;;;1.50;;
48777;SDS011;34578;0.000;0.000;2022-09-06T12:55:26;1.98;;;1.63;;
48777;SDS011;34578;0.000;0.000;2022-09-06T13:00:39;2.53;;;1.27;;
48777;SDS011;34578;0.000;0.000;2022-09-06T13:05:43;3.70;;;1.48;;
48777;SDS011;34578;0.000;0.000;2022-09-06T13:10:44;2.83;;;1.65;;
48777;SDS011;34578;0.000;0.000;2022-09-06T13:15:46;3.63;;;1.90;;
48777;SDS011;34578;0.000;0.000;2022-09-06T13:21:06;2.67;;;1.60;;
48777;SDS011;34578;0.000;0.000;2022-09-06T13:26:11;3.08;;;2.05;;
48777;SDS011;34578;0.000;0.000;2022-09-06T13:31:20;3.13;;;1.90;;
48777;SDS011;34578;0.000;0.000;2022-09-06T13:36:22;3.97;;;2.10;;
48777;SDS011;34578;0.000;0.000;2022-09-06T13:46:25;2.93;;;1.70;;
48777;SDS011;34578;0.000;0.000;2022-09-06T13:51:26;3.58;;;1.90;;
48777;SDS011;34578;0.000;0.000;2022-09-06T13:56:26;4.38;;;1.92;;
48777;SDS011;34578;0.000;0.000;2022-09-06T14:01:27;4.75;;;2.00;;
48777;SDS011;34578;0.000;0.000;2022-09-06T14:06:28;3.00;;;1.67;;
48777;SDS011;34578;0.000;0.000;2022-09-06T14:11:28;4.00;;;1.77;;
48777;SDS011;34578;0.000;0.000;2022-09-06T14:16:29;5.17;;;1.93;;
48777;SDS011;34578;0.000;0.000;2022-09-06T14:21:31;5.75;;;2.00;;
48777;SDS011;34578;0.000;0.000;2022-09-06T14:26:31;3.70;;;1.60;;
48777;SDS011;34578;0.000;0.000;2022-09-06T14:31:32;5.97;;;2.03;;
48777;SDS011;34578;0.000;0.000;2022-09-06T14:36:33;2.70;;;1.50;;
48777;SDS011;34578;0.000;0.000;2022-09-06T14:41:33;3.55;;;1.75;;
48777;SDS011;34578;0.000;0.000;2022-09-06T14:46:34;4.50;;;1.75;;
48777;SDS011;34578;0.000;0.000;2022-09-06T14:51:35;3.75;;;1.65;;
48777;SDS011;34578;0.000;0.000;2022-09-06T14:56:37;3.63;;;1.77;;
48777;SDS011;34578;0.000;0.000;2022-09-06T15:01:39;4.28;;;1.92;;
48777;SDS011;34578;0.000;0.000;2022-09-06T15:06:40;6.53;;;2.42;;
48777;SDS011;34578;0.000;0.000;2022-09-06T15:11:45;11.88;;;2.63;;
48777;SDS011;34578;0.000;0.000;2022-09-06T15:16:47;7.53;;;2.17;;
48777;SDS011;34578;0.000;0.000;2022-09-06T15:21:49;9.48;;;1.90;;
48777;SDS011;34578;0.000;0.000;2022-09-06T15:26:50;8.63;;;2.20;;
48777;SDS011;34578;0.000;0.000;2022-09-06T15:31:50;7.88;;;1.95;;
48777;SDS011;34578;0.000;0.000;2022-09-06T15:36:52;4.22;;;2.33;;
48777;SDS011;34578;0.000;0.000;2022-09-06T15:41:53;6.95;;;2.30;;
48777;SDS011;34578;0.000;0.000;2022-09-06T15:46:54;4.83;;;1.70;;
48777;SDS011;34578;0.000;0.000;2022-09-06T15:51:59;3.00;;;1.60;;
48777;SDS011;34578;0.000;0.000;2022-09-06T15:57:01;2.92;;;1.50;;
48777;SDS011;34578;0.000;0.000;2022-09-06T16:02:02;1.52;;;0.95;;
48777;SDS011;34578;0.000;0.000;2022-09-06T16:07:04;9.32;;;2.38;;
48777;SDS011;34578;0.000;0.000;2022-09-06T16:12:04;11.00;;;2.63;;
48777;SDS011;34578;0.000;0.000;2022-09-06T16:17:05;8.77;;;3.42;;
48777;SDS011;34578;0.000;0.000;2022-09-06T16:22:05;9.00;;;3.10;;
48777;SDS011;34578;0.000;0.000;2022-09-06T16:27:06;5.57;;;2.93;;
48777;SDS011;34578;0.000;0.000;2022-09-06T16:32:06;8.97;;;2.67;;
48777;SDS011;34578;0.000;0.000;2022-09-06T16:37:07;5.43;;;2.53;;
48777;SDS011;34578;0.000;0.000;2022-09-06T16:42:07;2.78;;;1.75;;
48777;SDS011;34578;0.000;0.000;2022-09-06T16:47:07;2.80;;;1.45;;
48777;SDS011;34578;0.000;0.000;2022-09-06T16:52:08;4.07;;;1.70;;
48777;SDS011;34578;0.000;0.000;2022-09-06T16:57:08;2.47;;;1.40;;
48777;SDS011;34578;0.000;0.000;2022-09-06T17:02:08;3.20;;;1.57;;
48777;SDS011;34578;0.000;0.000;2022-09-06T17:07:09;2.90;;;1.23;;
48777;SDS011;34578;0.000;0.000;2022-09-06T17:12:09;6.70;;;2.07;;
48777;SDS011;34578;0.000;0.000;2022-09-06T17:17:09;5.43;;;1.83;;
48777;SDS011;34578;0.000;0.000;2022-09-06T17:22:10;2.00;;;1.27;;
48777;SDS011;34578;0.000;0.000;2022-09-06T17:27:11;4.40;;;1.30;;
48777;SDS011;34578;0.000;0.000;2022-09-06T17:32:12;4.35;;;1.40;;
48777;SDS011;34578;0.000;0.000;2022-09-06T17:37:12;2.40;;;1.30;;
48777;SDS011;34578;0.000;0.000;2022-09-06T17:42:13;34.72;;;3.28;;
48777;SDS011;34578;0.000;0.000;2022-09-06T17:47:13;14.57;;;2.43;;
48777;SDS011;34578;0.000;0.000;2022-09-06T17:52:15;1.45;;;1.13;;
48777;SDS011;34578;0.000;0.000;2022-09-06T17:57:15;4.23;;;1.40;;
48777;SDS011;34578;0.000;0.000;2022-09-06T18:02:15;2.90;;;1.50;;
48777;SDS011;34578;0.000;0.000;2022-09-06T18:07:16;3.45;;;1.10;;
48777;SDS011;34578;0.000;0.000;2022-09-06T18:12:16;2.03;;;1.30;;
48777;SDS011;34578;0.000;0.000;2022-09-06T18:17:18;4.45;;;1.48;;
48777;SDS011;34578;0.000;0.000;2022-09-06T18:22:19;3.10;;;1.45;;
48777;SDS011;34578;0.000;0.000;2022-09-06T18:27:20;2.15;;;1.17;;
48777;SDS011;34578;0.000;0.000;2022-09-06T18:32:20;4.00;;;1.10;;
48777;SDS011;34578;0.000;0.000;2022-09-06T18:37:21;3.67;;;1.20;;
48777;SDS011;34578;0.000;0.000;2022-09-06T18:42:22;4.05;;;1.10;;
48777;SDS011;34578;0.000;0.000;2022-09-06T18:47:22;4.43;;;1.20;;
48777;SDS011;34578;0.000;0.000;2022-09-06T18:52:22;6.40;;;1.13;;
48777;SDS011;34578;0.000;0.000;2022-09-06T18:57:23;2.83;;;1.23;;
48777;SDS011;34578;0.000;0.000;2022-09-06T19:02:23;1.63;;;1.03;;
48777;SDS011;34578;0.000;0.000;2022-09-06T19:07:25;3.53;;;1.13;;
48777;SDS011;34578;0.000;0.000;2022-09-06T19:12:25;2.87;;;1.50;;
48777;SDS011;34578;0.000;0.000;2022-09-06T19:17:26;3.00;;;1.10;;
48777;SDS011;34578;0.000;0.000;2022-09-06T19:22:26;2.63;;;0.87;;
48777;SDS011;34578;0.000;0.000;2022-09-06T19:27:26;4.50;;;1.70;;
48777;SDS011;34578;0.000;0.000;2022-09-06T19:32:27;3.03;;;1.17;;
48777;SDS011;34578;0.000;0.000;2022-09-06T19:37:28;3.17;;;1.20;;
48777;SDS011;34578;0.000;0.000;2022-09-06T19:42:29;4.15;;;2.05;;
48777;SDS011;34578;0.000;0.000;2022-09-06T19:47:29;4.80;;;1.00;;
48777;SDS011;34578;0.000;0.000;2022-09-06T19:52:29;1.57;;;1.00;;
48777;SDS011;34578;0.000;0.000;2022-09-06T19:57:30;4.43;;;1.47;;
48777;SDS011;34578;0.000;0.000;2022-09-06T20:02:30;2.50;;;1.73;;
48777;SDS011;34578;0.000;0.000;2022-09-06T20:07:30;3.05;;;1.25;;
48777;SDS011;34578;0.000;0.000;2022-09-06T20:12:31;6.67;;;1.50;;
48777;SDS011;34578;0.000;0.000;2022-09-06T20:17:31;4.03;;;1.27;;
48777;SDS011;34578;0.000;0.000;2022-09-06T20:22:33;2.17;;;1.00;;
48777;SDS011;34578;0.000;0.000;2022-09-06T20:27:33;3.23;;;1.43;;
48777;SDS011;34578;0.000;0.000;2022-09-06T20:32:33;2.87;;;1.30;;
48777;SDS011;34578;0.000;0.000;2022-09-06T20:37:34;4.03;;;1.27;;
48777;SDS011;34578;0.000;0.000;2022-09-06T20:42:37;3.55;;;1.35;;
48777;SDS011;34578;0.000;0.000;2022-09-06T20:47:41;3.15;;;1.30;;
48777;SDS011;34578;0.000;0.000;2022-09-06T20:52:41;4.53;;;1.50;;
48777;SDS011;34578;0.000;0.000;2022-09-06T20:57:41;6.07;;;1.67;;
48777;SDS011;34578;0.000;0.000;2022-09-06T21:02:42;4.55;;;1.42;;
48777;SDS011;34578;0.000;0.000;2022-09-06T21:07:42;4.73;;;1.20;;
48777;SDS011;34578;0.000;0.000;2022-09-06T21:12:42;4.93;;;1.47;;
48777;SDS011;34578;0.000;0.000;2022-09-06T21:17:43;3.60;;;1.40;;
48777;SDS011;34578;0.000;0.000;2022-09-06T21:22:43;3.47;;;1.10;;
48777;SDS011;34578;0.000;0.000;2022-09-06T21:27:43;3.57;;;1.13;;
48777;SDS011;34578;0.000;0.000;2022-09-06T21:32:44;4.87;;;1.50;;
48777;SDS011;34578;0.000;0.000;2022-09-06T21:37:44;3.70;;;1.50;;
48777;SDS011;34578;0.000;0.000;2022-09-06T21:42:45;2.77;;;1.47;;
48777;SDS011;34578;0.000;0.000;2022-09-06T21:47:45;3.73;;;1.33;;
48777;SDS011;34578;0.000;0.000;2022-09-06T21:52:45;4.83;;;1.13;;
48777;SDS011;34578;0.000;0.000;2022-09-06T21:57:46;3.50;;;1.30;;
48777;SDS011;34578;0.000;0.000;2022-09-06T22:02:46;2.95;;;1.10;;
48777;SDS011;34578;0.000;0.000;2022-09-06T22:07:46;2.70;;;0.93;;
48777;SDS011;34578;0.000;0.000;2022-09-06T22:12:47;3.67;;;1.40;;
48777;SDS011;34578;0.000;0.000;2022-09-06T22:17:48;3.70;;;1.25;;
48777;SDS011;34578;0.000;0.000;2022-09-06T22:22:48;2.20;;;1.23;;
48777;SDS011;34578;0.000;0.000;2022-09-06T22:27:49;1.97;;;0.93;;
48777;SDS011;34578;0.000;0.000;2022-09-06T22:32:49;2.70;;;1.10;;
48777;SDS011;34578;0.000;0.000;2022-09-06T22:37:49;3.83;;;1.00;;
48777;SDS011;34578;0.000;0.000;2022-09-06T22:42:50;6.03;;;1.80;;
48777;SDS011;34578;0.000;0.000;2022-09-06T22:47:50;4.00;;;1.37;;
48777;SDS011;34578;0.000;0.000;2022-09-06T22:52:50;1.87;;;0.83;;
48777;SDS011;34578;0.000;0.000;2022-09-06T22:57:51;2.17;;;1.20;;
48777;SDS011;34578;0.000;0.000;2022-09-06T23:02:51;1.73;;;0.90;;
48777;SDS011;34578;0.000;0.000;2022-09-06T23:07:52;2.95;;;1.15;;
48777;SDS011;34578;0.000;0.000;2022-09-06T23:12:53;4.13;;;1.23;;
48777;SDS011;34578;0.000;0.000;2022-09-06T23:17:53;1.90;;;1.13;;
48777;SDS011;34578;0.000;0.000;2022-09-06T23:22:54;2.03;;;1.00;;
48777;SDS011;34578;0.000;0.000;2022-09-06T23:27:54;3.13;;;1.00;;
48777;SDS011;34578;0.000;0.000;2022-09-06T23:32:58;2.53;;;1.13;;
48777;SDS011;34578;0.000;0.000;2022-09-06T23:37:58;4.60;;;1.20;;
48777;SDS011;34578;0.000;0.000;2022-09-06T23:42:58;3.43;;;1.30;;
48777;SDS011;34578;0.000;0.000;2022-09-06T23:47:59;1.75;;;1.00;;
48777;SDS011;34578;0.000;0.000;2022-09-06T23:52:59;3.83;;;1.40;;
48777;SDS011;34578;0.000;0.000;2022-09-06T23:58:00;2.30;;;1.03;;
